Impacts TAF Board
For situational awareness. Not to be used for flight planning purposes.
IDs:

KTPA - Tampa Intl Arpt, FL, US

Issued at 1502 UTC 16 Feb 2019
Updated at 1602 UTC 16 Feb 2019
Potential Impact None Slight Moderate High
Time<<17/05Z 17/06Z 17/07Z 17/08Z 17/09Z 17/10Z 17/11Z 17/12Z 17/13Z 17/14Z 17/15Z 17/16Z 17/17Z>>
Type PRVL PRVL PRVL PRVL PRVL PRVL PRVL PRVL PRVL PRVL PRVL PRVL PRVL
VIS >6 >6 >6 >6 6 6 6 6 6 6 >6 >6 >6
CIG 250 250 250 250 -- -- -- -- -- -- 50 50 50
Cover BKN BKN BKN BKN SCT SCT SCT SCT SCT SCT BKN BKN BKN
FltCat VFR VFR VFR VFR VFR VFR VFR VFR VFR VFR VFR VFR VFR
WX -- -- -- -- BR BR BR BR BR BR -- -- --
WDir VRB VRB VRB VRB VRB VRB VRB VRB VRB VRB 170 170 170
WSpd 4 4 4 4 3 3 3 3 3 3 7 7 7
WGst -- -- -- -- -- -- -- -- -- -- -- -- --
Raw TAF
KTPA 161502Z 1615/1718 21012KT P6SM SCT030 SCT250
  FM170200 VRB04KT P6SM BKN250
  FM170900 VRB03KT 6SM BR FEW010 SCT250
  FM171500 17007KT P6SM SCT035 BKN050


METAR Board
Radar Display
Forecast Discussion
For situational awareness. Not to be used for flight planning purposes.